Time;durP1;ratioP1;P1;durP2;ratioP2;P2;SDS_P1;SDS_P2;PMS_P1;PMS_P2;Temp;Humidity;BMP_temperature;BMP_pressure;BME280_temperature;BME280_humidity;BME280_pressure;Samples;Min_cycle;Max_cycle;Signal;HPM_P1;HPM_P2
2021/08/18 10:49:02;;;;;;;31.02;14.30;;;;;;;35.33;33.95;100165.03;1747274;81;23333;-41
2021/08/18 10:51:44;;;;;;;30.02;13.55;;;;;;;35.31;35.42;100171.66;1708401;83;21096;-40
2021/08/18 10:54:31;;;;;;;26.55;13.75;;;;;;;35.30;34.57;100165.44;1710215;82;21814;-41
2021/08/18 10:57:00;;;;;;;29.82;14.47;;;;;;;35.22;34.49;100174.48;1708665;82;20959;-42
2021/08/18 10:59:49;;;;;;;23.73;13.53;;;;;;;34.98;35.73;100169.55;1708776;82;20944;-41
2021/08/18 11:02:53;;;;;;;24.15;13.10;;;;;;;35.13;36.01;100165.46;1709629;82;20952;-41
2021/08/18 11:05:24;;;;;;;21.37;12.88;;;;;;;35.37;35.26;100155.56;1678193;84;21584;-41
2021/08/18 11:08:14;;;;;;;21.00;13.45;;;;;;;35.55;34.52;100152.05;1711282;82;20995;-41
2021/08/18 11:10:55;;;;;;;16.67;13.13;;;;;;;35.52;35.24;100155.95;1711477;82;21556;-42
2021/08/18 11:13:50;;;;;;;17.32;12.82;;;;;;;35.58;34.90;100140.88;1698328;83;21031;-42
2021/08/18 11:16:26;;;;;;;19.92;12.20;;;;;;;35.76;34.41;100138.45;1710882;82;21031;-43
2021/08/18 11:18:59;;;;;;;23.57;12.75;;;;;;;35.79;34.21;100135.36;1684066;83;21576;-41
2021/08/18 11:21:31;;;;;;;25.70;14.60;;;;;;;35.92;33.93;100131.87;1667753;84;20996;-44
2021/08/18 11:24:11;;;;;;;31.07;13.58;;;;;;;36.08;34.37;100128.49;1646689;86;22226;-41
2021/08/18 11:26:41;;;;;;;23.90;13.10;;;;;;;35.95;34.39;100127.92;1708336;82;21068;-42
2021/08/18 11:29:18;;;;;;;17.45;12.70;;;;;;;35.93;33.37;100116.53;1709198;82;20983;-41
2021/08/18 11:31:49;;;;;;;18.32;12.90;;;;;;;36.10;32.45;100108.41;1655973;85;20951;-43
2021/08/18 11:34:28;;;;;;;17.55;12.93;;;;;;;36.25;32.85;100104.68;1668361;85;21218;-42
2021/08/18 11:37:03;;;;;;;21.80;12.85;;;;;;;36.20;30.93;100099.09;1677701;84;21537;-42
2021/08/18 11:39:34;;;;;;;18.97;13.20;;;;;;;36.00;33.21;100095.02;1713771;83;21095;-42
2021/08/18 11:42:18;;;;;;;19.77;12.35;;;;;;;36.07;32.57;100092.67;1714487;82;20961;-41
2021/08/18 11:44:46;;;;;;;20.80;14.15;;;;;;;36.14;34.65;100090.50;1708866;82;21504;-42
2021/08/18 11:47:15;;;;;;;23.20;13.35;;;;;;;36.16;32.88;100083.88;1709631;82;20987;-42
2021/08/18 11:49:50;;;;;;;24.40;13.40;;;;;;;36.02;33.05;100074.97;1714666;82;21031;-42
2021/08/18 11:52:20;;;;;;;23.83;13.28;;;;;;;35.93;33.59;100075.66;1704817;82;20987;-43
2021/08/18 11:54:58;;;;;;;23.32;13.80;;;;;;;35.87;32.80;100077.80;1680124;83;21569;-41
2021/08/18 11:57:25;;;;;;;27.77;13.58;;;;;;;35.65;33.43;100076.64;1671500;83;21015;-42
2021/08/18 11:59:55;;;;;;;54.00;16.25;;;;;;;35.42;34.75;100070.75;1673966;83;21767;-43
2021/08/18 12:02:24;;;;;;;44.08;14.85;;;;;;;35.55;35.43;100068.64;1684768;83;21533;-43
2021/08/18 12:05:00;;;;;;;25.65;14.18;;;;;;;35.53;35.44;100069.68;1709858;81;20932;-41
2021/08/18 12:07:28;;;;;;;34.83;13.80;;;;;;;35.58;34.32;100070.39;1709571;82;21639;-41
2021/08/18 12:10:18;;;;;;;34.38;15.38;;;;;;;35.53;35.00;100065.64;1702205;82;21092;-41
2021/08/18 12:12:46;;;;;;;44.95;16.60;;;;;;;35.64;36.27;100065.56;1709033;82;21703;-42
2021/08/18 12:15:15;;;;;;;45.45;14.85;;;;;;;35.65;33.11;100061.00;1708643;82;20971;-43
2021/08/18 12:17:45;;;;;;;46.63;15.25;;;;;;;35.50;34.33;100061.98;1709581;83;20997;-41
2021/08/18 12:20:33;;;;;;;27.65;14.03;;;;;;;35.36;35.08;100054.89;1711125;82;20957;-43
2021/08/18 12:23:04;;;;;;;34.85;14.20;;;;;;;35.34;35.62;100052.92;1688387;83;21537;-42
2021/08/18 12:25:34;;;;;;;41.23;14.80;;;;;;;35.51;35.81;100046.69;1707517;82;21597;-40
2021/08/18 12:28:15;;;;;;;31.95;14.85;;;;;;;35.73;34.85;100047.34;1710500;83;21079;-41
2021/08/18 12:30:59;;;;;;;42.62;15.28;;;;;;;35.79;32.84;100044.36;1702555;81;21608;-42
2021/08/18 12:33:26;;;;;;;26.05;14.60;;;;;;;35.71;35.44;100039.19;1710488;82;21512;-43
2021/08/18 12:36:13;;;;;;;21.57;13.68;;;;;;;35.78;34.29;100038.16;1706891;82;20943;-43
2021/08/18 12:38:53;;;;;;;25.62;14.00;;;;;;;35.88;34.86;100035.58;1708256;82;21099;-43
2021/08/18 12:41:25;;;;;;;26.77;14.58;;;;;;;35.93;33.70;100029.89;1710932;83;20997;-43
2021/08/18 12:44:07;;;;;;;18.65;14.25;;;;;;;35.67;34.44;100023.95;1710506;82;21220;-42
2021/08/18 12:46:37;;;;;;;35.28;15.70;;;;;;;35.64;34.13;100021.67;1705650;82;21047;-42
2021/08/18 12:49:28;;;;;;;27.95;14.35;;;;;;;35.60;33.53;100019.09;1708158;82;20976;-43
2021/08/18 12:51:58;;;;;;;33.02;14.40;;;;;;;35.53;36.07;100013.19;1706523;82;21651;-43
2021/08/18 12:54:25;;;;;;;18.37;13.53;;;;;;;35.66;36.81;100017.76;1710698;82;21056;-42
2021/08/18 12:56:52;;;;;;;20.57;13.98;;;;;;;35.90;35.38;100018.20;1710684;82;21556;-40
2021/08/18 12:59:19;;;;;;;21.82;14.18;;;;;;;36.02;33.91;100019.78;1709723;83;21580;-42
2021/08/18 13:01:45;;;;;;;23.02;13.95;;;;;;;36.05;33.92;100013.98;1709930;82;21573;-42
2021/08/18 13:04:12;;;;;;;23.87;14.10;;;;;;;36.09;34.38;100012.52;1699729;82;21136;-42
2021/08/18 13:06:39;;;;;;;22.40;13.70;;;;;;;36.17;33.05;100017.38;1703653;83;20986;-42
2021/08/18 13:09:07;;;;;;;20.77;13.35;;;;;;;36.19;32.21;100023.38;1673558;84;21509;-43
2021/08/18 13:11:33;;;;;;;20.82;14.43;;;;;;;36.25;33.61;100014.46;1675687;84;20988;-42
2021/08/18 13:14:00;;;;;;;19.20;13.53;;;;;;;36.41;32.75;100009.69;1697286;83;21003;-40
2021/08/18 13:16:26;;;;;;;19.65;13.88;;;;;;;36.54;32.46;99998.92;1681525;84;21353;-40
2021/08/18 13:18:53;;;;;;;27.52;13.78;;;;;;;36.66;32.72;99995.88;1708407;82;21051;-42
2021/08/18 13:21:19;;;;;;;25.08;13.20;;;;;;;36.79;32.84;99986.09;1708273;83;20971;-42
2021/08/18 13:23:47;;;;;;;21.42;12.93;;;;;;;36.88;31.49;99986.16;1709240;83;20988;-40
2021/08/18 13:26:14;;;;;;;20.68;12.80;;;;;;;36.79;32.00;99992.84;1707871;83;20928;-42
2021/08/18 13:28:42;;;;;;;23.32;13.95;;;;;;;36.57;32.15;99989.07;1708069;82;21891;-40
2021/08/18 13:31:08;;;;;;;18.05;13.10;;;;;;;36.13;32.23;99990.56;1710834;83;21566;-40
2021/08/18 13:33:35;;;;;;;23.40;12.95;;;;;;;35.51;33.42;99990.20;1675112;83;21520;-42
2021/08/18 13:36:01;;;;;;;19.87;13.15;;;;;;;34.95;34.39;99989.36;1692678;83;21632;-42
2021/08/18 13:38:30;;;;;;;22.55;13.95;;;;;;;34.43;34.82;99982.98;1692287;83;21638;-40
2021/08/18 13:40:58;;;;;;;30.10;14.15;;;;;;;33.95;36.03;99987.64;1707777;82;21055;-40
2021/08/18 13:43:24;;;;;;;24.35;14.85;;;;;;;33.48;36.61;99989.91;1709980;83;20945;-42
2021/08/18 13:45:52;;;;;;;243.48;24.10;;;;;;;32.98;36.90;99977.16;1708421;83;21034;-41
2021/08/18 13:48:19;;;;;;;64.22;16.45;;;;;;;32.57;37.65;99979.80;1708880;82;21086;-42
2021/08/18 13:50:45;;;;;;;78.02;15.45;;;;;;;32.19;38.52;99973.97;1711480;82;21039;-42
2021/08/18 13:53:11;;;;;;;36.25;15.32;;;;;;;31.86;40.46;99971.59;1709023;82;21496;-40
2021/08/18 13:55:40;;;;;;;23.77;14.38;;;;;;;31.51;40.63;99975.99;1709220;82;20987;-40
2021/08/18 13:58:07;;;;;;;53.60;13.62;;;;;;;30.96;45.64;99989.30;1687819;82;21116;-42
2021/08/18 14:00:34;;;;;;;26.12;12.63;;;;;;;30.23;45.52;99991.12;1686146;83;21060;-42
2021/08/18 14:03:02;;;;;;;40.40;12.00;;;;;;;29.61;47.13;99997.72;1722135;82;21020;-42
2021/08/18 14:05:28;;;;;;;24.25;10.55;;;;;;;29.03;49.24;100012.18;1718494;81;21185;-43
2021/08/18 14:07:56;;;;;;;27.22;11.20;;;;;;;28.48;50.43;100026.16;1675867;83;21050;-41
2021/08/18 14:10:27;;;;;;;22.85;10.93;;;;;;;27.91;51.08;100062.73;1679839;83;20998;-43
2021/08/18 14:12:54;;;;;;;13.40;8.63;;;;;;;27.57;50.62;100068.70;1666207;84;21052;-41
2021/08/18 14:15:21;;;;;;;21.68;8.83;;;;;;;27.25;50.28;100064.13;1708219;82;21055;-43
2021/08/18 14:17:49;;;;;;;17.60;8.05;;;;;;;27.01;50.27;100064.63;1702644;82;21132;-41
2021/08/18 14:20:15;;;;;;;17.00;7.95;;;;;;;26.88;50.40;100076.90;1695863;82;21009;-42
2021/08/18 14:22:43;;;;;;;40.85;8.93;;;;;;;26.63;51.91;100089.77;1700363;83;21015;-43
2021/08/18 14:25:10;;;;;;;26.60;10.08;;;;;;;26.26;55.37;100095.81;1705120;83;21861;-41
2021/08/18 14:27:37;;;;;;;41.45;10.53;;;;;;;25.73;59.96;100120.80;1679560;83;21726;-41
2021/08/18 14:30:05;;;;;;;23.57;10.88;;;;;;;24.81;66.33;100142.64;1707576;82;21135;-41
2021/08/18 14:32:32;;;;;;;22.77;11.38;;;;;;;23.27;72.97;100149.98;1711017;82;20989;-41
2021/08/18 14:34:58;;;;;;;22.10;11.35;;;;;;;21.81;80.62;100171.91;1711682;82;21574;-41
2021/08/18 14:37:24;;;;;;;24.67;12.35;;;;;;;21.00;87.82;100183.56;1673034;82;21047;-40
2021/08/18 14:39:51;;;;;;;27.15;11.38;;;;;;;20.70;93.76;100192.52;1692015;83;21031;-40
2021/08/18 14:42:19;;;;;;;22.25;11.35;;;;;;;20.56;96.94;100209.19;1707964;83;20983;-42
2021/08/18 14:44:47;;;;;;;20.50;11.70;;;;;;;20.42;99.37;100219.27;1711679;83;21635;-41
2021/08/18 14:47:14;;;;;;;23.05;12.35;;;;;;;20.33;100.00;100260.94;1705974;82;21019;-43
2021/08/18 14:49:41;;;;;;;29.00;12.45;;;;;;;20.28;100.00;100304.23;1696558;82;21016;-42
2021/08/18 14:52:09;;;;;;;19.37;11.40;;;;;;;20.17;100.00;100303.58;1688147;82;21729;-41
2021/08/18 14:54:38;;;;;;;19.05;9.33;;;;;;;20.12;100.00;100299.08;1707109;83;21943;-42
2021/08/18 14:57:04;;;;;;;15.85;8.68;;;;;;;19.84;100.00;100260.84;1657842;85;21046;-42
2021/08/18 14:59:32;;;;;;;10.63;7.22;;;;;;;19.56;100.00;100246.76;1638780;85;21083;-41
2021/08/18 15:01:58;;;;;;;9.15;6.95;;;;;;;19.22;100.00;100235.64;1702831;82;20961;-41
2021/08/18 15:04:25;;;;;;;13.38;7.67;;;;;;;18.91;100.00;100219.85;1646976;84;21070;-40
2021/08/18 15:06:52;;;;;;;14.13;7.80;;;;;;;18.71;100.00;100209.65;1668507;85;21109;-41
2021/08/18 15:09:19;;;;;;;18.52;7.85;;;;;;;18.60;100.00;100182.28;1651470;85;21132;-42
2021/08/18 15:11:46;;;;;;;17.23;9.13;;;;;;;18.50;100.00;100167.98;1648140;85;20982;-42
2021/08/18 15:14:12;;;;;;;18.02;9.05;;;;;;;18.40;100.00;100157.66;1648032;86;20963;-40
2021/08/18 15:16:40;;;;;;;15.70;9.20;;;;;;;18.31;100.00;100153.28;1646871;86;20919;-40
2021/08/18 15:19:07;;;;;;;15.93;9.23;;;;;;;18.32;100.00;100141.05;1657483;85;21141;-40
2021/08/18 15:21:35;;;;;;;19.25;10.38;;;;;;;18.37;100.00;100139.01;1667679;85;21042;-41
2021/08/18 15:24:09;;;;;;;17.55;9.85;;;;;;;18.46;100.00;100153.38;1651599;85;21057;-42
2021/08/18 15:26:37;;;;;;;12.85;9.23;;;;;;;18.56;100.00;100168.94;1633211;85;21032;-41
2021/08/18 16:58:20;;;;;;;11.57;7.00;;;;;;;18.93;100.00;100189.14;1870123;76;22698;-41
2021/08/18 17:00:49;;;;;;;12.63;7.55;;;;;;;18.84;100.00;100178.33;1805844;77;20970;-42
2021/08/18 17:03:17;;;;;;;11.83;7.62;;;;;;;18.77;100.00;100175.21;1826266;78;20912;-43
2021/08/18 17:05:44;;;;;;;12.70;6.80;;;;;;;18.74;100.00;100172.31;1828043;77;20930;-42
2021/08/18 17:12:06;;;;;;;14.85;7.70;;;;;;;18.61;100.00;100168.69;1793618;80;20979;-42
2021/08/18 17:14:33;;;;;;;10.03;7.22;;;;;;;18.48;100.00;100160.67;1758716;81;21742;-42
2021/08/18 17:17:01;;;;;;;10.93;7.70;;;;;;;18.42;100.00;100159.72;1770530;80;22033;-42
2021/08/18 17:19:29;;;;;;;15.85;8.08;;;;;;;18.38;100.00;100159.89;1811534;79;20915;-41
2021/08/18 17:21:57;;;;;;;10.23;7.72;;;;;;;18.35;100.00;100164.00;1777716;80;20971;-42
2021/08/18 17:24:25;;;;;;;11.15;7.53;;;;;;;18.36;100.00;100160.45;1782244;80;21041;-43
2021/08/18 17:26:52;;;;;;;11.10;8.53;;;;;;;18.38;100.00;100169.06;1783731;80;21508;-42
2021/08/18 17:29:18;;;;;;;13.78;7.97;;;;;;;18.37;100.00;100170.45;1783753;80;21173;-42
2021/08/18 17:31:46;;;;;;;10.25;7.45;;;;;;;18.36;100.00;100185.34;1783743;80;21497;-41
2021/08/18 17:34:13;;;;;;;12.82;7.75;;;;;;;18.37;100.00;100190.09;1757427;80;21527;-41
2021/08/18 17:36:39;;;;;;;12.47;8.13;;;;;;;18.42;100.00;100206.88;1786900;79;21086;-40
2021/08/18 17:39:06;;;;;;;10.98;7.67;;;;;;;18.42;100.00;100206.88;1817744;79;22360;-43
2021/08/18 17:41:33;;;;;;;14.95;7.70;;;;;;;18.40;100.00;100200.41;1787113;80;21946;-41
2021/08/18 17:44:00;;;;;;;14.65;8.83;;;;;;;18.40;100.00;100211.36;1793435;78;21523;-42
2021/08/18 17:46:26;;;;;;;16.23;8.40;;;;;;;18.41;100.00;100207.81;1774037;79;21432;-42
2021/08/18 17:48:53;;;;;;;10.13;6.83;;;;;;;18.39;100.00;100211.81;1733564;81;21581;-42
2021/08/18 17:51:19;;;;;;;10.60;6.87;;;;;;;18.39;100.00;100209.20;1718393;81;21450;-42
2021/08/18 17:53:46;;;;;;;13.28;7.03;;;;;;;18.34;100.00;100202.06;1712636;82;21167;-40
2021/08/18 17:56:12;;;;;;;11.18;7.58;;;;;;;18.33;100.00;100195.99;1738171;82;20936;-42
2021/08/18 17:58:40;;;;;;;11.25;8.45;;;;;;;18.32;100.00;100190.83;1747727;82;21568;-43
2021/08/18 18:01:07;;;;;;;13.00;8.23;;;;;;;18.31;100.00;100190.45;1744443;81;21023;-42
2021/08/18 18:03:35;;;;;;;11.73;8.03;;;;;;;18.31;100.00;100189.14;1748920;81;21027;-42
2021/08/18 18:06:01;;;;;;;10.78;7.55;;;;;;;18.29;100.00;100181.83;1747577;81;21116;-42
2021/08/18 18:08:28;;;;;;;11.48;8.45;;;;;;;18.27;100.00;100177.14;1748390;81;21087;-42
2021/08/18 18:10:54;;;;;;;13.88;8.28;;;;;;;18.30;100.00;100164.70;1740599;81;21034;-43
2021/08/18 18:13:22;;;;;;;11.10;8.50;;;;;;;18.30;100.00;100164.70;1735979;81;20968;-41
2021/08/18 18:15:49;;;;;;;14.95;8.15;;;;;;;18.29;100.00;100155.15;1721233;81;21026;-41
2021/08/18 18:18:17;;;;;;;12.65;7.83;;;;;;;18.32;100.00;100148.45;1727748;81;21007;-40
2021/08/18 18:20:46;;;;;;;14.23;8.63;;;;;;;18.34;100.00;100138.73;1748736;81;20948;-42
2021/08/18 18:23:14;;;;;;;14.33;8.55;;;;;;;18.35;100.00;100140.42;1749316;81;20975;-42
2021/08/18 18:25:41;;;;;;;10.45;8.05;;;;;;;18.33;100.00;100147.97;1749481;81;20918;-41
2021/08/18 18:28:08;;;;;;;10.10;8.45;;;;;;;18.33;100.00;100146.22;1748245;81;21496;-43
2021/08/18 18:30:35;;;;;;;14.75;8.13;;;;;;;18.29;100.00;100157.77;1736758;81;20982;-43
2021/08/18 18:33:03;;;;;;;13.28;9.30;;;;;;;18.23;100.00;100163.36;1741712;81;21023;-42
2021/08/18 18:35:29;;;;;;;12.53;9.20;;;;;;;18.15;100.00;100160.33;1736772;81;20905;-42
2021/08/18 18:37:57;;;;;;;12.50;8.80;;;;;;;18.10;100.00;100155.33;1704227;81;20955;-42
2021/08/18 18:40:23;;;;;;;17.67;9.85;;;;;;;18.08;100.00;100147.58;1726688;81;20967;-44
2021/08/18 18:42:50;;;;;;;18.05;10.13;;;;;;;18.07;100.00;100141.95;1749614;81;21046;-42
2021/08/18 18:45:17;;;;;;;17.50;10.85;;;;;;;18.10;100.00;100150.09;1747295;82;20964;-43
2021/08/18 18:47:43;;;;;;;16.90;10.55;;;;;;;18.13;100.00;100146.47;1747369;82;20960;-42
2021/08/18 18:50:11;;;;;;;14.03;10.30;;;;;;;18.15;100.00;100145.92;1728954;81;21041;-44
2021/08/18 18:52:38;;;;;;;15.50;9.93;;;;;;;18.16;100.00;100146.30;1739218;80;21049;-42
2021/08/18 18:55:07;;;;;;;13.62;10.70;;;;;;;18.16;100.00;100144.98;1728913;81;21280;-43
2021/08/18 18:57:33;;;;;;;17.85;10.53;;;;;;;18.17;100.00;100153.23;1733240;81;21631;-43
2021/08/18 19:00:01;;;;;;;16.50;11.15;;;;;;;18.19;100.00;100151.36;1727243;82;21524;-42
2021/08/18 19:02:29;;;;;;;17.35;10.25;;;;;;;18.18;100.00;100152.30;1750694;81;21017;-41
2021/08/18 19:04:55;;;;;;;19.77;10.70;;;;;;;18.16;100.00;100149.75;1756159;81;21014;-43
2021/08/18 19:07:22;;;;;;;13.35;9.88;;;;;;;18.14;100.00;100146.84;1747975;81;21567;-41
2021/08/18 19:09:51;;;;;;;16.32;11.28;;;;;;;18.13;100.00;100142.06;1755212;81;21572;-41
2021/08/18 19:12:19;;;;;;;14.23;11.22;;;;;;;18.12;100.00;100134.30;1758288;81;20985;-41
2021/08/18 19:14:47;;;;;;;14.98;11.08;;;;;;;18.09;100.00;100138.78;1770398;80;20982;-41
2021/08/18 19:17:13;;;;;;;18.17;11.40;;;;;;;18.08;100.00;100126.62;1735784;82;20987;-41
2021/08/18 19:19:42;;;;;;;16.35;11.28;;;;;;;18.10;100.00;100125.21;1765809;80;20991;-44
2021/08/18 19:22:08;;;;;;;20.75;11.53;;;;;;;18.13;100.00;100125.04;1723191;82;20951;-43
2021/08/18 19:24:36;;;;;;;24.90;11.97;;;;;;;18.15;100.00;100122.34;1759949;81;21029;-41
2021/08/18 19:27:04;;;;;;;16.27;11.35;;;;;;;18.16;100.00;100120.11;1768222;80;21551;-43
2021/08/18 19:29:32;;;;;;;18.07;12.73;;;;;;;18.18;100.00;100122.17;1761180;81;20966;-42
2021/08/18 19:31:59;;;;;;;19.10;12.23;;;;;;;18.18;100.00;100116.94;1739454;82;21143;-43
2021/08/18 19:34:26;;;;;;;21.35;12.60;;;;;;;18.19;100.00;100115.55;1737037;81;20970;-41
2021/08/18 19:36:54;;;;;;;19.80;12.65;;;;;;;18.19;100.00;100114.25;1757186;81;20995;-42
2021/08/18 19:39:21;;;;;;;18.62;12.90;;;;;;;18.17;100.00;100102.16;1762851;81;21087;-42
2021/08/18 19:41:49;;;;;;;16.85;12.13;;;;;;;18.15;100.00;100104.02;1774918;80;21543;-42
2021/08/18 19:44:15;;;;;;;22.17;12.47;;;;;;;18.15;100.00;100103.53;1736850;81;21800;-43
2021/08/18 19:46:42;;;;;;;21.62;12.15;;;;;;;18.17;100.00;100096.91;1749212;80;21518;-41
2021/08/18 19:49:10;;;;;;;18.42;13.62;;;;;;;18.16;100.00;100097.84;1794606;80;21716;-42
2021/08/18 19:51:37;;;;;;;18.90;11.95;;;;;;;18.15;100.00;100093.05;1753128;80;20993;-40
2021/08/18 19:54:04;;;;;;;19.57;12.33;;;;;;;18.15;100.00;100092.23;1743317;81;20938;-41
2021/08/18 19:56:32;;;;;;;16.20;11.63;;;;;;;18.12;100.00;100087.16;1756452;80;20982;-41
2021/08/18 19:59:00;;;;;;;17.98;11.73;;;;;;;18.11;100.00;100084.17;1735067;81;20974;-42
2021/08/18 20:01:27;;;;;;;16.90;12.15;;;;;;;18.12;100.00;100085.38;1740369;81;20986;-40
2021/08/18 20:03:54;;;;;;;19.60;12.03;;;;;;;18.13;100.00;100083.62;1741036;81;21437;-41
2021/08/18 20:06:20;;;;;;;17.50;11.68;;;;;;;18.15;100.00;100089.61;1754980;81;20978;-42
2021/08/18 20:08:49;;;;;;;18.50;12.68;;;;;;;18.15;100.00;100089.61;1726614;81;21049;-42
2021/08/18 20:11:15;;;;;;;24.35;12.13;;;;;;;18.14;100.00;100087.92;1737952;81;21018;-41
2021/08/18 20:13:45;;;;;;;22.65;13.45;;;;;;;18.13;100.00;100084.45;1735370;81;20974;-43
2021/08/18 20:16:12;;;;;;;23.05;12.40;;;;;;;18.13;100.00;100080.52;1728263;81;20990;-45
2021/08/18 20:18:38;;;;;;;16.75;11.90;;;;;;;18.13;100.00;100071.34;1757545;81;21018;-43
2021/08/18 20:21:09;;;;;;;20.85;12.65;;;;;;;18.11;100.00;100065.84;1755424;81;20991;-44
2021/08/18 20:23:36;;;;;;;22.93;12.75;;;;;;;18.10;100.00;100066.28;1747188;81;20905;-42
2021/08/18 20:26:04;;;;;;;37.33;13.65;;;;;;;18.12;100.00;100064.42;1747040;82;20912;-42
2021/08/18 20:28:30;;;;;;;38.75;14.07;;;;;;;18.13;100.00;100067.91;1747207;81;20964;-43
2021/08/18 20:30:58;;;;;;;58.55;15.85;;;;;;;18.15;100.00;100071.28;1708542;82;21003;-41
2021/08/18 20:33:25;;;;;;;49.45;14.58;;;;;;;18.15;100.00;100067.34;1704098;82;21296;-41
2021/08/18 20:35:52;;;;;;;64.53;15.08;;;;;;;18.14;100.00;100067.80;1703966;84;21639;-42
2021/08/18 20:38:19;;;;;;;68.05;15.83;;;;;;;18.16;100.00;100071.17;1730026;81;21469;-41
2021/08/18 20:40:47;;;;;;;32.42;13.75;;;;;;;18.19;100.00;100065.79;1740347;82;21552;-40
2021/08/18 20:43:13;;;;;;;33.45;13.40;;;;;;;18.22;100.00;100066.06;1747385;82;21678;-40
2021/08/18 20:45:40;;;;;;;40.05;13.70;;;;;;;18.22;100.00;100064.75;1748258;81;21524;-40
2021/08/18 20:48:07;;;;;;;24.12;12.37;;;;;;;18.20;100.00;100065.30;1730047;81;21037;-42
2021/08/18 20:50:35;;;;;;;20.00;12.00;;;;;;;18.19;100.00;100070.17;1716569;82;20940;-42
2021/08/18 20:53:03;;;;;;;17.52;12.73;;;;;;;18.14;100.00;100064.35;1704015;84;21020;-40
2021/08/18 20:55:34;;;;;;;21.02;11.48;;;;;;;18.08;100.00;100061.61;1704363;84;20976;-38
2021/08/18 20:58:03;;;;;;;14.83;11.18;;;;;;;18.04;100.00;100066.16;1717803;81;21112;-46
2021/08/18 21:00:32;;;;;;;18.77;11.97;;;;;;;18.00;100.00;100069.02;1722485;81;21053;-41
2021/08/18 21:02:58;;;;;;;19.50;11.40;;;;;;;17.98;100.00;100073.50;1708822;83;21026;-41
2021/08/18 21:05:24;;;;;;;22.27;13.00;;;;;;;17.91;100.00;100074.30;1708637;82;21003;-41
2021/08/18 21:07:51;;;;;;;19.73;12.43;;;;;;;17.80;100.00;100075.72;1724715;81;20970;-42
2021/08/18 21:10:21;;;;;;;26.10;12.88;;;;;;;17.77;100.00;100082.44;1730551;82;20970;-41
2021/08/18 21:12:49;;;;;;;23.60;12.20;;;;;;;17.77;100.00;100088.15;1709395;81;21533;-40
2021/08/18 21:15:17;;;;;;;20.70;12.45;;;;;;;17.78;100.00;100091.14;1708689;83;21433;-40
2021/08/18 21:17:45;;;;;;;22.42;13.53;;;;;;;17.75;100.00;100096.07;1722915;82;21034;-40
2021/08/18 21:20:13;;;;;;;23.38;12.47;;;;;;;17.71;100.00;100095.03;1716057;82;21070;-40
2021/08/18 21:22:41;;;;;;;15.95;11.68;;;;;;;17.69;100.00;100096.89;1739513;82;21138;-42
2021/08/18 21:25:09;;;;;;;21.60;12.55;;;;;;;17.68;100.00;100109.11;1739759;81;20943;-40
2021/08/18 21:27:38;;;;;;;21.77;12.03;;;;;;;17.66;100.00;100097.89;1737379;82;20940;-42
2021/08/18 21:30:07;;;;;;;22.55;12.75;;;;;;;17.64;100.00;100093.20;1734678;82;20960;-41
2021/08/18 21:32:34;;;;;;;20.00;12.85;;;;;;;17.63;100.00;100096.27;1740018;81;20979;-40
2021/08/18 21:35:00;;;;;;;25.52;12.30;;;;;;;17.60;100.00;100094.30;1728875;81;21732;-42
2021/08/18 21:37:26;;;;;;;24.72;12.53;;;;;;;17.57;100.00;100096.60;1784281;80;20962;-42
2021/08/18 21:39:53;;;;;;;18.17;12.50;;;;;;;17.53;100.00;100090.67;1781822;80;21009;-41
2021/08/18 21:42:20;;;;;;;26.33;12.60;;;;;;;17.51;100.00;100093.84;1755695;80;21100;-42
2021/08/18 21:44:46;;;;;;;22.55;13.83;;;;;;;17.49;100.00;100090.47;1782607;80;20938;-43
2021/08/18 21:47:14;;;;;;;19.67;11.97;;;;;;;17.49;100.00;100093.08;1760505;80;21053;-43
2021/08/18 21:49:43;;;;;;;21.48;12.63;;;;;;;17.48;100.00;100084.85;1790072;79;20985;-42
2021/08/18 21:52:10;;;;;;;18.82;13.78;;;;;;;17.48;100.00;100080.93;1756271;80;20943;-40
2021/08/18 21:54:38;;;;;;;24.90;14.43;;;;;;;17.48;100.00;100082.72;1713100;82;21030;-43
2021/08/18 21:57:08;;;;;;;25.32;15.55;;;;;;;17.45;100.00;100082.88;1758175;81;21013;-43
2021/08/18 21:59:36;;;;;;;22.15;14.30;;;;;;;17.46;100.00;100092.42;1730353;81;21079;-40
2021/08/18 22:02:02;;;;;;;25.35;13.75;;;;;;;17.50;100.00;100087.40;1747243;81;20971;-41
2021/08/18 22:04:31;;;;;;;22.50;14.07;;;;;;;17.52;100.00;100081.63;1717520;81;20956;-41
2021/08/18 22:06:59;;;;;;;28.10;14.60;;;;;;;17.53;100.00;100074.98;1737575;82;21030;-40
2021/08/18 22:09:25;;;;;;;24.27;14.07;;;;;;;17.54;100.00;100079.77;1747325;81;21504;-42
2021/08/18 22:11:52;;;;;;;23.30;14.30;;;;;;;17.55;100.00;100076.67;1754886;81;21129;-42
2021/08/18 22:14:18;;;;;;;23.95;15.48;;;;;;;17.51;100.00;100067.67;1762636;80;21496;-40
2021/08/18 22:16:45;;;;;;;21.25;14.18;;;;;;;17.49;100.00;100064.30;1766479;80;21036;-41
2021/08/18 22:19:13;;;;;;;24.12;13.70;;;;;;;17.44;100.00;100071.56;1749161;81;20988;-40
2021/08/18 22:21:39;;;;;;;19.67;13.78;;;;;;;17.40;100.00;100070.04;1757571;81;20947;-41
2021/08/18 22:24:08;;;;;;;21.23;13.03;;;;;;;17.35;100.00;100071.58;1757610;80;20944;-42
2021/08/18 22:26:35;;;;;;;18.25;13.70;;;;;;;17.35;100.00;100073.37;1729266;81;20994;-42
2021/08/18 22:29:03;;;;;;;31.48;16.40;;;;;;;17.34;100.00;100073.81;1735001;81;21018;-42
2021/08/18 22:31:29;;;;;;;18.67;13.90;;;;;;;17.34;100.00;100071.20;1726707;81;20960;-40
2021/08/18 22:33:56;;;;;;;25.30;14.70;;;;;;;17.32;100.00;100059.14;1721088;83;21070;-41
2021/08/18 22:36:22;;;;;;;23.07;15.03;;;;;;;17.32;100.00;100059.98;1734020;81;21150;-42
2021/08/18 22:38:50;;;;;;;17.98;13.58;;;;;;;17.38;100.00;100061.43;1752328;81;20924;-42
2021/08/18 22:41:16;;;;;;;28.00;14.28;;;;;;;17.40;100.00;100062.19;1752465;81;21085;-40
2021/08/18 22:43:44;;;;;;;29.65;14.65;;;;;;;17.43;100.00;100063.33;1718314;81;21517;-42
2021/08/18 22:46:10;;;;;;;23.20;15.28;;;;;;;17.45;100.00;100058.86;1713719;81;21034;-40
2021/08/18 22:48:37;;;;;;;23.67;14.70;;;;;;;17.48;100.00;100060.48;1752472;81;21135;-41
2021/08/18 22:51:04;;;;;;;22.98;15.18;;;;;;;17.46;100.00;100068.39;1733999;81;21561;-42
2021/08/18 22:53:32;;;;;;;24.32;14.47;;;;;;;17.45;100.00;100065.40;1748953;81;21552;-44
2021/08/18 22:55:58;;;;;;;24.63;14.20;;;;;;;17.48;100.00;100065.23;1760003;81;21002;-41
2021/08/18 22:58:24;;;;;;;28.75;14.98;;;;;;;17.49;100.00;100065.61;1755987;81;20943;-42
2021/08/18 23:00:52;;;;;;;69.40;17.25;;;;;;;17.50;100.00;100072.53;1733234;81;21328;-42
2021/08/18 23:03:20;;;;;;;39.78;15.80;;;;;;;17.51;100.00;100073.39;1728274;82;20936;-43
2021/08/18 23:05:46;;;;;;;26.80;15.78;;;;;;;17.54;100.00;100071.91;1740959;81;21026;-42
2021/08/18 23:08:14;;;;;;;24.82;14.85;;;;;;;17.57;100.00;100072.22;1758127;81;21159;-41
2021/08/18 23:10:43;;;;;;;26.55;15.68;;;;;;;17.58;100.00;100073.91;1742228;81;20971;-41
2021/08/18 23:13:09;;;;;;;33.30;14.38;;;;;;;17.59;100.00;100078.22;1734375;81;21110;-41
2021/08/18 23:15:36;;;;;;;55.05;16.20;;;;;;;17.57;100.00;100070.92;1712215;82;20987;-42
2021/08/18 23:18:04;;;;;;;64.32;16.60;;;;;;;17.57;100.00;100076.16;1750788;81;20988;-41
2021/08/18 23:20:32;;;;;;;118.15;18.23;;;;;;;17.56;100.00;100076.59;1755568;81;22170;-42
2021/08/18 23:23:00;;;;;;;66.75;16.73;;;;;;;17.53;100.00;100080.21;1737549;81;21015;-43
2021/08/18 23:25:26;;;;;;;18.10;13.78;;;;;;;17.51;100.00;100078.14;1733524;81;21093;-44
2021/08/18 23:27:53;;;;;;;20.37;14.20;;;;;;;17.51;100.00;100074.70;1766929;80;20965;-42
2021/08/18 23:30:20;;;;;;;26.05;15.20;;;;;;;17.52;100.00;100073.30;1746932;82;21016;-42
2021/08/18 23:32:47;;;;;;;18.55;15.20;;;;;;;17.52;100.00;100075.91;1733080;82;21483;-41
2021/08/18 23:35:13;;;;;;;24.65;14.47;;;;;;;17.53;100.00;100076.29;1716896;82;21580;-43